createdAt,value
2022-11-11T00:01:04.000Z,0.00
2022-11-11T00:15:44.000Z,0.00
2022-11-11T00:30:22.000Z,0.00
2022-11-11T00:45:00.000Z,0.00
2022-11-11T00:59:38.000Z,0.00
2022-11-11T01:14:17.000Z,0.00
2022-11-11T01:28:55.000Z,0.00
2022-11-11T01:43:31.000Z,0.00
2022-11-11T01:58:10.000Z,0.00
2022-11-11T02:12:49.000Z,0.00
2022-11-11T02:27:27.000Z,0.00
2022-11-11T02:42:05.000Z,0.00
2022-11-11T02:56:43.000Z,0.00
2022-11-11T03:11:21.000Z,0.00
2022-11-11T03:26:00.000Z,0.00
2022-11-11T03:40:37.000Z,0.00
2022-11-11T03:55:14.000Z,0.00
2022-11-11T04:09:49.000Z,0.00
2022-11-11T04:24:29.000Z,0.00
2022-11-11T04:39:05.000Z,0.00
2022-11-11T04:53:40.000Z,0.00
2022-11-11T05:08:18.000Z,0.00
2022-11-11T05:22:56.000Z,0.00
2022-11-11T05:37:34.000Z,0.00
2022-11-11T05:52:13.000Z,0.00
2022-11-11T06:06:50.000Z,0.00
2022-11-11T06:21:28.000Z,4.17
2022-11-11T06:36:05.000Z,24.17
2022-11-11T06:50:43.000Z,81.67
2022-11-11T07:05:22.000Z,198.33
2022-11-11T07:19:55.000Z,320.83
2022-11-11T07:34:34.000Z,457.50
2022-11-11T07:49:14.000Z,581.67
2022-11-11T08:03:54.000Z,706.67
2022-11-11T08:18:31.000Z,869.17
2022-11-11T08:33:09.000Z,1100.00
2022-11-11T08:47:49.000Z,1594.17
2022-11-11T09:02:33.000Z,3050.83
2022-11-11T09:17:19.000Z,3143.33
2022-11-11T09:32:01.000Z,4765.83
2022-11-11T09:36:56.000Z,4344.17
2022-11-11T09:41:52.000Z,5375.00
2022-11-11T09:46:47.000Z,5631.67
2022-11-11T09:51:43.000Z,4965.83
2022-11-11T09:56:37.000Z,4785.83
2022-11-11T10:01:32.000Z,4945.83
2022-11-11T10:06:27.000Z,3520.00
2022-11-11T10:11:21.000Z,5750.83
2022-11-11T10:16:17.000Z,3085.00
2022-11-11T10:21:11.000Z,2820.00
2022-11-11T10:26:05.000Z,4604.17
2022-11-11T10:30:59.000Z,5021.67
2022-11-11T10:35:54.000Z,5795.00
2022-11-11T10:40:47.000Z,6662.50
2022-11-11T10:45:42.000Z,7476.67
2022-11-11T10:50:38.000Z,7811.67
2022-11-11T10:55:34.000Z,4899.17
2022-11-11T11:00:28.000Z,5797.50
2022-11-11T11:05:23.000Z,5825.00
2022-11-11T11:10:17.000Z,6448.33
2022-11-11T11:15:12.000Z,7525.83
2022-11-11T11:20:07.000Z,7042.50
2022-11-11T11:25:02.000Z,8093.33
2022-11-11T11:29:57.000Z,7152.50
2022-11-11T11:34:51.000Z,7379.17
2022-11-11T11:39:45.000Z,8486.67
2022-11-11T11:44:40.000Z,8995.00
2022-11-11T11:49:36.000Z,8978.33
2022-11-11T11:59:25.000Z,7525.00
2022-11-11T12:04:19.000Z,9818.33
2022-11-11T12:09:14.000Z,10044.17
2022-11-11T12:14:09.000Z,10272.50
2022-11-11T12:19:04.000Z,10163.33
2022-11-11T12:23:57.000Z,10043.33
2022-11-11T12:28:54.000Z,10366.67
2022-11-11T12:33:45.000Z,10387.50
2022-11-11T12:38:40.000Z,10517.50
2022-11-11T12:43:35.000Z,10496.67
2022-11-11T12:48:30.000Z,10618.33
2022-11-11T12:53:25.000Z,10690.00
2022-11-11T12:58:18.000Z,10547.50
2022-11-11T13:03:11.000Z,10700.83
2022-11-11T13:08:06.000Z,10541.67
2022-11-11T13:13:00.000Z,10626.67
2022-11-11T13:17:55.000Z,10639.17
2022-11-11T13:22:49.000Z,9950.00
2022-11-11T13:27:44.000Z,8556.67
2022-11-11T13:32:37.000Z,9439.17
2022-11-11T13:37:32.000Z,10088.33
2022-11-11T13:42:27.000Z,10198.33
2022-11-11T13:47:19.000Z,9954.17
2022-11-11T13:52:14.000Z,9881.67
2022-11-11T13:57:08.000Z,9756.67
2022-11-11T14:02:03.000Z,9595.83
2022-11-11T14:06:57.000Z,9372.50
2022-11-11T14:11:51.000Z,9190.83
2022-11-11T14:16:46.000Z,8882.50
2022-11-11T14:21:40.000Z,8593.33
2022-11-11T14:26:34.000Z,2436.67
2022-11-11T14:31:28.000Z,7030.00
2022-11-11T14:36:22.000Z,7070.83
2022-11-11T14:41:16.000Z,4515.00
2022-11-11T14:46:09.000Z,4841.67
2022-11-11T14:51:03.000Z,4384.17
2022-11-11T14:55:58.000Z,4018.33
2022-11-11T15:00:51.000Z,1750.83
2022-11-11T15:05:44.000Z,1272.50
2022-11-11T15:10:36.000Z,488.33
2022-11-11T15:15:29.000Z,385.83
2022-11-11T15:20:23.000Z,320.00
2022-11-11T15:25:17.000Z,260.00
2022-11-11T15:30:10.000Z,210.00
2022-11-11T15:35:05.000Z,167.50
2022-11-11T15:39:59.000Z,130.83
2022-11-11T15:44:53.000Z,98.33
2022-11-11T15:49:47.000Z,70.00
2022-11-11T15:54:41.000Z,50.83
2022-11-11T15:59:35.000Z,35.00
2022-11-11T16:04:29.000Z,20.83
2022-11-11T16:09:23.000Z,9.17
2022-11-11T16:14:18.000Z,3.33
2022-11-11T16:19:12.000Z,1.67
2022-11-11T16:24:06.000Z,0.00
2022-11-11T16:29:01.000Z,0.00
2022-11-11T16:33:55.000Z,0.00
2022-11-11T16:38:49.000Z,0.00
2022-11-11T16:43:44.000Z,0.00
2022-11-11T16:48:38.000Z,0.00
2022-11-11T16:53:32.000Z,0.00
2022-11-11T16:58:26.000Z,0.00
2022-11-11T17:03:21.000Z,0.00
2022-11-11T17:08:15.000Z,0.00
2022-11-11T17:13:10.000Z,0.00
2022-11-11T17:18:03.000Z,0.00
2022-11-11T17:22:57.000Z,0.00
2022-11-11T17:27:51.000Z,0.00
2022-11-11T17:32:45.000Z,0.00
2022-11-11T17:37:39.000Z,0.00
2022-11-11T17:42:34.000Z,0.00
2022-11-11T17:47:27.000Z,0.00
2022-11-11T17:52:21.000Z,0.00
2022-11-11T17:57:16.000Z,0.00
2022-11-11T18:02:10.000Z,0.00
2022-11-11T18:07:04.000Z,0.00
2022-11-11T18:11:59.000Z,0.00
2022-11-11T18:16:53.000Z,0.00
2022-11-11T18:21:48.000Z,0.00
2022-11-11T18:26:42.000Z,0.00
2022-11-11T18:31:36.000Z,0.00
2022-11-11T18:36:28.000Z,0.00
2022-11-11T18:41:22.000Z,0.00
2022-11-11T18:46:16.000Z,0.00
2022-11-11T18:51:10.000Z,0.00
2022-11-11T18:56:04.000Z,0.00
2022-11-11T19:00:57.000Z,0.00
2022-11-11T19:05:52.000Z,0.00
2022-11-11T19:10:46.000Z,0.00
2022-11-11T19:15:40.000Z,0.00
2022-11-11T19:20:35.000Z,0.00
2022-11-11T19:25:28.000Z,0.00
2022-11-11T19:30:23.000Z,0.00
2022-11-11T19:35:16.000Z,0.00
2022-11-11T19:40:11.000Z,0.00
2022-11-11T19:45:03.000Z,0.00
2022-11-11T19:49:56.000Z,0.00
2022-11-11T19:54:51.000Z,0.00
2022-11-11T19:59:45.000Z,0.00
2022-11-11T20:04:39.000Z,0.00
2022-11-11T20:09:33.000Z,0.00
2022-11-11T20:14:30.000Z,0.00
2022-11-11T20:19:20.000Z,0.00
2022-11-11T20:24:14.000Z,0.00
2022-11-11T20:29:09.000Z,0.00
2022-11-11T20:34:03.000Z,0.00
2022-11-11T20:38:57.000Z,0.00
2022-11-11T20:43:51.000Z,0.00
2022-11-11T20:48:44.000Z,0.00
2022-11-11T20:53:38.000Z,0.00
2022-11-11T20:58:32.000Z,0.00
2022-11-11T21:03:26.000Z,0.00
